Time;durP1;ratioP1;P1;durP2;ratioP2;P2;SDS_P1;SDS_P2;PMS_P1;PMS_P2;Temp;Humidity;BMP_temperature;BMP_pressure;BME280_temperature;BME280_humidity;BME280_pressure;Samples;Min_cycle;Max_cycle;Signal;HPM_P1;HPM_P2
2023/12/23 00:15:33;;;;;;;2.95;2.20;;;;;;;20.48;54.84;98462.84;41657604;28;20072;-69
2023/12/23 00:35:33;;;;;;;2.00;1.73;;;;;;;20.45;54.68;98420.28;41661136;28;20115;-70
2023/12/23 00:55:33;;;;;;;1.98;1.50;;;;;;;20.41;54.61;98419.78;41685640;28;20400;-70
2023/12/23 01:15:34;;;;;;;1.65;1.50;;;;;;;20.39;54.69;98505.03;41677633;28;20385;-70
2023/12/23 01:35:34;;;;;;;1.30;1.20;;;;;;;20.34;54.84;98502.88;41677336;28;20037;-70
2023/12/23 01:55:36;;;;;;;1.30;1.20;;;;;;;20.30;54.76;98470.84;41673888;28;20049;-69
2023/12/23 02:15:37;;;;;;;1.20;1.10;;;;;;;20.25;54.51;98538.84;41668866;28;20077;-70
2023/12/23 02:35:37;;;;;;;1.42;1.20;;;;;;;20.20;54.63;98517.47;41653478;28;20093;-69
2023/12/23 02:55:38;;;;;;;0.85;0.85;;;;;;;20.17;54.64;98528.28;41664361;28;20045;-70
2023/12/23 03:15:38;;;;;;;1.00;0.90;;;;;;;20.11;54.75;98561.25;41670752;28;20045;-70
2023/12/23 03:35:39;;;;;;;0.90;0.88;;;;;;;20.16;54.33;98647.50;41671660;28;20084;-69
2023/12/23 03:55:40;;;;;;;0.70;0.70;;;;;;;20.13;54.33;98577.69;41655361;28;20061;-69
2023/12/23 04:15:40;;;;;;;0.60;0.60;;;;;;;20.12;54.08;98576.03;41672731;28;21032;-70
2023/12/23 04:35:41;;;;;;;0.60;0.60;;;;;;;20.17;53.65;98546.69;41687854;28;21538;-70
2023/12/23 04:55:42;;;;;;;0.55;0.50;;;;;;;20.17;53.43;98604.50;41680209;28;20067;-70
2023/12/23 05:15:42;;;;;;;2.38;0.38;;;;;;;20.36;53.18;98635.00;41668134;28;20049;-69
2023/12/23 05:35:42;;;;;;;1.08;0.60;;;;;;;20.96;52.21;98730.66;41680385;28;20045;-69
2023/12/23 05:55:43;;;;;;;0.50;0.40;;;;;;;21.06;51.75;98754.22;41684734;28;20048;-69
2023/12/23 06:15:44;;;;;;;1.02;0.60;;;;;;;21.20;51.51;98771.19;41670825;28;20522;-73
2023/12/23 06:35:45;;;;;;;10.23;1.60;;;;;;;21.33;51.28;98776.84;41681680;28;20197;-71
2023/12/23 06:55:45;;;;;;;3.67;1.08;;;;;;;21.44;51.49;98846.84;41669410;28;20577;-71
2023/12/23 07:15:45;;;;;;;3.17;0.70;;;;;;;21.42;48.16;98869.84;41672111;28;20059;-71
2023/12/23 07:35:46;;;;;;;10.27;4.55;;;;;;;21.46;49.96;98931.78;41658705;28;20496;-71
2023/12/23 07:55:46;;;;;;;9.15;3.60;;;;;;;21.62;50.13;98986.38;41658074;28;20587;-70
2023/12/23 08:15:47;;;;;;;5.47;2.97;;;;;;;21.55;50.64;99038.00;41677405;28;20041;-70
2023/12/23 08:35:47;;;;;;;8.88;2.53;;;;;;;21.48;51.22;99072.00;41666026;28;20571;-69
2023/12/23 08:55:47;;;;;;;7.20;3.70;;;;;;;21.67;51.30;99117.63;41696747;28;20122;-75
2023/12/23 09:15:48;;;;;;;12.55;7.05;;;;;;;21.67;51.81;99139.53;41726826;28;20068;-78
2023/12/23 09:35:48;;;;;;;16.77;5.10;;;;;;;21.20;45.73;99135.31;41676078;28;20456;-73
2023/12/23 09:55:50;;;;;;;9.88;4.82;;;;;;;21.68;49.74;99121.91;41697842;28;20488;-73
2023/12/23 10:15:50;;;;;;;11.02;5.63;;;;;;;21.70;51.35;99146.28;41688664;28;20050;-71
2023/12/23 10:35:51;;;;;;;9.52;6.18;;;;;;;21.72;52.28;99139.06;41703720;28;20045;-74
2023/12/23 10:55:53;;;;;;;14.43;5.85;;;;;;;21.66;51.61;99144.97;41670063;28;20136;-72
2023/12/23 11:15:55;;;;;;;8.43;5.20;;;;;;;21.67;51.05;99110.56;41674318;28;20500;-75
2023/12/23 11:36:00;;;;;;;9.68;4.30;;;;;;;21.46;49.84;99102.09;41688597;28;20048;-76
2023/12/23 11:56:01;;;;;;;5.40;3.30;;;;;;;21.44;48.54;99053.03;41669425;28;20041;-72
2023/12/23 12:16:02;;;;;;;2.92;2.40;;;;;;;21.53;48.90;99032.88;41681409;28;20878;-72
2023/12/23 12:36:11;;;;;;;3.75;2.20;;;;;;;21.57;49.23;98991.31;41685865;28;20427;-72
2023/12/23 12:56:14;;;;;;;3.20;1.92;;;;;;;21.51;50.54;99012.97;41706151;28;20041;-74
2023/12/23 13:16:14;;;;;;;5.63;1.98;;;;;;;21.51;50.29;99037.47;41724277;28;20033;-76
2023/12/23 13:36:15;;;;;;;15.25;5.15;;;;;;;21.57;51.23;99042.16;41688903;28;20045;-70
2023/12/23 13:56:15;;;;;;;12.00;4.47;;;;;;;21.49;51.25;99031.53;41671739;28;20600;-70
2023/12/23 14:16:17;;;;;;;7.55;3.53;;;;;;;21.45;50.90;99019.66;41659704;28;20049;-70
2023/12/23 14:36:18;;;;;;;8.38;3.00;;;;;;;21.46;50.74;99018.69;41608353;28;20128;-69
2023/12/23 14:56:18;;;;;;;7.22;2.83;;;;;;;21.46;50.24;99031.84;41627535;28;20043;-71
2023/12/23 15:16:19;;;;;;;7.28;2.85;;;;;;;21.33;49.60;99034.88;41655536;28;20051;-70
2023/12/23 15:36:19;;;;;;;10.82;3.47;;;;;;;21.72;49.60;99038.97;41646450;28;20033;-71
2023/12/23 15:56:20;;;;;;;17.20;6.05;;;;;;;21.75;52.37;99042.13;41642518;28;20041;-70
2023/12/23 16:16:22;;;;;;;14.10;5.88;;;;;;;21.44;53.72;99039.06;41668041;28;20043;-74
2023/12/23 16:36:22;;;;;;;16.25;7.03;;;;;;;21.93;54.07;99003.50;41701934;28;20056;-72
2023/12/23 16:56:24;;;;;;;32.55;9.13;;;;;;;21.56;53.68;98979.91;41669091;28;20041;-68
2023/12/23 17:16:24;;;;;;;21.35;7.57;;;;;;;21.24;53.24;98993.69;41658055;28;20049;-68
2023/12/23 17:36:24;;;;;;;14.73;6.25;;;;;;;21.25;52.52;99034.78;41667405;28;20049;-69
2023/12/23 17:56:25;;;;;;;12.68;4.85;;;;;;;21.15;51.91;99048.03;41678153;28;20064;-68
2023/12/23 18:16:25;;;;;;;18.55;3.92;;;;;;;20.54;46.32;99050.38;41647793;28;20041;-69
2023/12/23 18:36:29;;;;;;;7.78;3.75;;;;;;;20.91;50.13;99060.00;41643387;28;20508;-69
2023/12/23 18:56:29;;;;;;;11.30;7.05;;;;;;;20.94;51.64;99088.63;41649617;28;20037;-69
2023/12/23 19:16:29;;;;;;;19.65;7.43;;;;;;;21.09;52.51;99104.75;41650636;28;20080;-70
2023/12/23 19:36:31;;;;;;;13.90;6.35;;;;;;;20.89;54.86;99119.84;41660886;28;20057;-70
2023/12/23 19:56:31;;;;;;;13.55;5.93;;;;;;;21.01;55.72;99162.56;41712240;28;20037;-75
2023/12/23 20:16:32;;;;;;;15.32;5.97;;;;;;;21.01;55.37;99172.28;41644631;28;21077;-67
2023/12/23 20:36:37;;;;;;;14.73;6.30;;;;;;;20.94;55.23;99193.91;41652930;28;20056;-68
2023/12/23 20:56:38;;;;;;;27.02;8.10;;;;;;;20.90;55.24;99242.53;41643902;28;20068;-67
2023/12/23 21:16:39;;;;;;;19.00;7.45;;;;;;;20.91;55.03;99273.16;41609606;28;20048;-68
2023/12/23 21:36:40;;;;;;;18.50;6.45;;;;;;;20.88;55.42;99302.38;41659970;28;20037;-72
2023/12/23 21:56:40;;;;;;;14.10;5.65;;;;;;;20.85;55.16;99322.88;41711851;28;20063;-75
2023/12/23 22:16:40;;;;;;;11.85;4.65;;;;;;;20.55;54.29;99345.75;41706011;28;20447;-70
2023/12/23 22:36:41;;;;;;;8.15;3.65;;;;;;;20.59;54.16;99358.47;41682978;28;20052;-73
2023/12/23 22:56:41;;;;;;;7.72;3.40;;;;;;;20.43;55.38;99360.84;41689465;28;20044;-74
2023/12/23 23:16:42;;;;;;;5.10;2.70;;;;;;;20.43;55.49;99385.34;41681509;28;20060;-74
2023/12/23 23:36:42;;;;;;;5.38;2.60;;;;;;;20.37;55.36;99404.28;41685556;28;20823;-72
2023/12/23 23:56:42;;;;;;;4.72;2.70;;;;;;;20.41;55.30;99437.22;41674581;28;20128;-72
